Terminal Aerodrome Forecast
Issued by NWS Sterling, VA

Current Version | Previous Version | Graphics & Text | Print | Product List | Glossary On
Versions: 1 2 3 4 5 6 7 8 9 10 11 12 13 14 15 16 17 18 19 20 21 22 23 24 25 26 27
236
FTUS41 KLWX 151729
TAFIAD
TAF
KIAD 151729Z 1518/1624 36009KT P6SM BKN250
     FM160100 VRB03KT P6SM BKN110
     FM161400 VRB03KT P6SM OVC030
     FM161600 16005KT P6SM OVC015=

USA.gov is the U.S. government's official web portal to all federal, state and local government web resources and services.